Time;durP1;ratioP1;P1;durP2;ratioP2;P2;SDS_P1;SDS_P2;PMS_P1;PMS_P2;Temp;Humidity;BMP_temperature;BMP_pressure;BME280_temperature;BME280_humidity;BME280_pressure;Samples;Min_cycle;Max_cycle;Signal;HPM_P1;HPM_P2
2022/08/28 00:01:21;;;;;;;;;;;;;;;21.09;70.63;100228.70;1752332;80;26065;-63
2022/08/28 00:03:47;;;;;;;;;;;;;;;21.11;70.94;100229.42;1747393;80;84333;-63
2022/08/28 00:06:12;;;;;;;;;;;;;;;21.10;70.84;100230.42;1756199;80;27402;-64
2022/08/28 00:08:38;;;;;;;;;;;;;;;21.07;71.18;100230.20;1744064;80;28315;-63
2022/08/28 00:11:04;;;;;;;;;;;;;;;21.04;71.38;100225.55;1754316;80;84679;-63
2022/08/28 00:13:30;;;;;;;;;;;;;;;21.03;71.46;100230.64;1752220;80;25762;-63
2022/08/28 00:15:59;;;;;;;;;;;;;;;21.03;71.50;100230.14;1735222;80;84371;-63
2022/08/28 00:18:28;;;;;;;;;;;;;;;21.01;71.67;100226.70;1748707;81;45734;-63
2022/08/28 00:20:55;;;;;;;;;;;;;;;21.00;71.80;100218.66;1751221;80;84651;-63
2022/08/28 00:23:22;;;;;;;;;;;;;;;20.97;72.02;100229.34;1743985;81;25810;-63
2022/08/28 00:25:48;;;;;;;;;;;;;;;20.97;72.07;100231.21;1747823;81;25915;-63
2022/08/28 00:28:14;;;;;;;;;;;;;;;20.96;72.07;100232.22;1744298;81;83980;-63
2022/08/28 00:30:47;;;;;;;;;;;;;;;20.94;72.17;100235.08;1755372;81;27389;-63
2022/08/28 00:33:17;;;;;;;;;;;;;;;20.92;72.30;100234.36;1750880;81;84348;-63
2022/08/28 00:35:44;;;;;;;;;;;;;;;20.91;72.36;100229.06;1706034;83;25787;-63
2022/08/28 00:38:11;;;;;;;;;;;;;;;20.88;72.26;100234.29;1714323;82;25732;-63
2022/08/28 00:40:39;;;;;;;;;;;;;;;20.83;72.66;100233.86;1724883;82;84903;-63
2022/08/28 00:43:05;;;;;;;;;;;;;;;20.81;72.98;100230.91;1717507;82;27467;-63
2022/08/28 00:45:32;;;;;;;;;;;;;;;20.78;73.18;100234.81;1717232;82;84375;-62
2022/08/28 00:47:59;;;;;;;;;;;;;;;20.76;73.05;100231.88;1752751;81;25784;-63
2022/08/28 00:50:27;;;;;;;;;;;;;;;20.72;73.32;100231.30;1746036;81;25774;-63
2022/08/28 00:52:59;;;;;;;;;;;;;;;20.68;73.43;100221.69;1757298;80;85188;-63
2022/08/28 00:55:26;;;;;;;;;;;;;;;20.62;73.74;100222.25;1745987;81;28129;-63
2022/08/28 00:57:55;;;;;;;;;;;;;;;20.56;74.53;100218.73;1749453;81;84461;-63
2022/08/28 01:00:24;;;;;;;;;;;;;;;20.51;74.54;100221.02;1741705;81;25825;-63
2022/08/28 01:02:51;;;;;;;;;;;;;;;20.48;74.54;100224.02;1746851;80;84352;-63
2022/08/28 01:05:16;;;;;;;;;;;;;;;20.47;74.40;100226.38;1754534;81;25801;-63
2022/08/28 01:07:43;;;;;;;;;;;;;;;20.42;74.29;100214.55;1737700;81;27486;-63
2022/08/28 01:10:12;;;;;;;;;;;;;;;20.39;74.40;100225.22;1745469;80;84400;-63
2022/08/28 01:12:38;;;;;;;;;;;;;;;20.35;74.50;100218.30;1743575;81;25775;-63
2022/08/28 01:15:11;;;;;;;;;;;;;;;20.32;74.68;100219.94;1750203;81;84593;-63
2022/08/28 01:17:41;;;;;;;;;;;;;;;20.28;74.67;100218.98;1754356;80;26445;-63
2022/08/28 01:20:11;;;;;;;;;;;;;;;20.23;75.42;100228.92;1739430;81;27548;-63
2022/08/28 01:22:57;;;;;;;;;;;;;;;20.17;75.52;100221.31;1747614;81;85315;-63
2022/08/28 01:25:26;;;;;;;;;;;;;;;20.14;75.53;100221.59;1741887;81;25810;-64
2022/08/28 01:27:51;;;;;;;;;;;;;;;20.12;75.90;100222.73;1748852;81;84004;-64
2022/08/28 01:30:20;;;;;;;;;;;;;;;20.04;76.82;100222.91;1755343;80;25741;-64
2022/08/28 01:32:49;;;;;;;;;;;;;;;19.97;77.11;100221.74;1755189;80;84300;-65
2022/08/28 01:35:18;;;;;;;;;;;;;;;19.93;77.06;100216.71;1757013;81;25843;-64
2022/08/28 01:37:44;;;;;;;;;;;;;;;19.90;76.98;100215.62;1748886;80;25889;-64
2022/08/28 01:40:13;;;;;;;;;;;;;;;19.86;77.02;100223.20;1735574;81;84142;-64
2022/08/28 01:42:41;;;;;;;;;;;;;;;19.86;76.89;100226.41;1731397;81;25938;-64
2022/08/28 01:45:09;;;;;;;;;;;;;;;19.82;77.09;100227.68;1708034;82;84383;-63
2022/08/28 01:47:37;;;;;;;;;;;;;;;19.78;77.48;100216.21;1729955;82;25783;-62
2022/08/28 01:50:05;;;;;;;;;;;;;;;19.73;78.09;100215.76;1720220;82;26648;-63
2022/08/28 01:52:30;;;;;;;;;;;;;;;19.67;77.94;100223.95;1712017;82;84296;-63
2022/08/28 01:54:56;;;;;;;;;;;;;;;19.66;77.95;100221.38;1753016;81;25691;-62
2022/08/28 01:57:22;;;;;;;;;;;;;;;19.63;77.97;100225.22;1741820;81;84297;-63
2022/08/28 01:59:49;;;;;;;;;;;;;;;19.60;77.92;100229.56;1744332;81;26028;-62
2022/08/28 02:02:16;;;;;;;;;;;;;;;19.56;77.94;100227.25;1750508;81;25966;-62
2022/08/28 02:04:42;;;;;;;;;;;;;;;19.52;78.08;100232.09;1754106;80;84059;-62
2022/08/28 02:07:08;;;;;;;;;;;;;;;19.49;78.06;100232.33;1751682;81;25776;-62
2022/08/28 02:09:34;;;;;;;;;;;;;;;19.45;78.04;100234.95;1743113;81;84408;-62
2022/08/28 02:12:00;;;;;;;;;;;;;;;19.41;78.18;100236.20;1753753;81;25805;-62
2022/08/28 02:14:26;;;;;;;;;;;;;;;19.39;78.28;100243.63;1752851;81;25721;-62
2022/08/28 02:16:52;;;;;;;;;;;;;;;19.36;78.30;100233.89;1749038;80;84046;-62
2022/08/28 02:19:19;;;;;;;;;;;;;;;19.36;78.21;100243.40;1747031;81;25720;-62
2022/08/28 02:21:45;;;;;;;;;;;;;;;19.34;78.23;100239.09;1748649;81;84352;-62
2022/08/28 02:24:11;;;;;;;;;;;;;;;19.31;78.33;100231.20;1738842;81;25975;-63
2022/08/28 02:26:37;;;;;;;;;;;;;;;19.29;78.27;100235.41;1718119;82;25700;-63
2022/08/28 02:29:04;;;;;;;;;;;;;;;19.25;78.58;100224.44;1722041;82;84172;-64
2022/08/28 02:31:29;;;;;;;;;;;;;;;19.21;78.58;100230.27;1726187;82;25901;-63
2022/08/28 02:33:55;;;;;;;;;;;;;;;19.18;78.64;100224.60;1750558;80;84362;-63
2022/08/28 02:36:22;;;;;;;;;;;;;;;19.18;78.67;100219.17;1751377;81;25900;-63
2022/08/28 02:38:49;;;;;;;;;;;;;;;19.17;78.52;100222.02;1762837;81;85405;-63
2022/08/28 02:41:14;;;;;;;;;;;;;;;19.16;78.50;100225.73;1748776;81;26523;-63
2022/08/28 02:43:40;;;;;;;;;;;;;;;19.12;78.64;100225.98;1760649;81;26448;-63
2022/08/28 02:46:06;;;;;;;;;;;;;;;19.08;78.65;100224.53;1742608;81;84876;-63
2022/08/28 02:48:34;;;;;;;;;;;;;;;19.03;78.84;100221.34;1741482;81;26358;-63
2022/08/28 02:51:04;;;;;;;;;;;;;;;19.00;79.05;100217.53;1754344;81;84234;-63
2022/08/28 02:53:30;;;;;;;;;;;;;;;18.94;79.11;100211.76;1744780;81;26627;-63
2022/08/28 02:55:55;;;;;;;;;;;;;;;18.95;79.53;100222.48;1747021;81;25865;-63
2022/08/28 02:58:22;;;;;;;;;;;;;;;18.90;79.46;100219.30;1749451;81;84201;-63
2022/08/28 03:00:48;;;;;;;;;;;;;;;18.92;79.41;100234.11;1746939;80;25747;-63
2022/08/28 03:03:14;;;;;;;;;;;;;;;18.89;79.50;100239.80;1753814;80;84125;-63
2022/08/28 03:05:40;;;;;;;;;;;;;;;18.88;79.51;100240.80;1754630;81;27437;-63
2022/08/28 03:08:06;;;;;;;;;;;;;;;18.87;79.47;100246.72;1745564;81;26298;-63
2022/08/28 03:10:32;;;;;;;;;;;;;;;18.85;79.64;100245.98;1739738;81;84060;-63
2022/08/28 03:12:58;;;;;;;;;;;;;;;18.84;79.64;100248.33;1746224;81;27197;-63
2022/08/28 03:15:23;;;;;;;;;;;;;;;18.83;79.70;100252.53;1743381;80;84630;-63
2022/08/28 03:17:49;;;;;;;;;;;;;;;18.81;79.93;100238.59;1749199;79;26801;-63
2022/08/28 03:20:15;;;;;;;;;;;;;;;18.82;79.99;100244.88;1754096;79;26532;-63
2022/08/28 03:25:27;;;;;;;;;;;;;;;18.76;80.81;100235.40;1761142;79;25991;-62
2022/08/28 03:27:53;;;;;;;;;;;;;;;18.74;80.90;100237.88;1755854;79;84203;-62
2022/08/28 03:30:19;;;;;;;;;;;;;;;18.74;80.85;100237.37;1754904;79;25802;-63
2022/08/28 03:32:45;;;;;;;;;;;;;;;18.73;81.15;100242.94;1748361;79;84487;-63
2022/08/28 03:35:11;;;;;;;;;;;;;;;18.71;81.22;100247.14;1747635;79;27505;-62
2022/08/28 03:37:37;;;;;;;;;;;;;;;18.69;81.37;100247.77;1751870;79;26216;-62
2022/08/28 03:40:05;;;;;;;;;;;;;;;18.62;81.38;100239.77;1752395;79;84455;-62
2022/08/28 03:42:30;;;;;;;;;;;;;;;18.71;81.42;100254.42;1773239;81;25815;-62
2022/08/28 03:44:56;;;;;;;;;;;;;;;18.70;81.84;100253.56;1771637;81;84242;-63
2022/08/28 03:47:23;;;;;;;;;;;;;;;18.69;81.98;100253.69;1772477;81;28678;-62
2022/08/28 03:49:56;;;;;;;;;;;;;;;18.68;82.16;100246.53;1772645;81;25916;-63
2022/08/28 03:52:23;;;;;;;;;;;;;;;18.67;82.22;100247.52;1771694;81;84405;-63
2022/08/28 03:54:49;;;;;;;;;;;;;;;18.64;82.45;100242.34;1772799;81;25775;-63
2022/08/28 03:57:20;;;;;;;;;;;;;;;18.66;82.54;100244.44;1771832;81;84244;-63
2022/08/28 03:59:51;;;;;;;;;;;;;;;18.64;82.73;100244.57;1772742;81;27460;-63
2022/08/28 04:02:19;;;;;;;;;;;;;;;18.62;83.52;100256.55;1772865;81;25634;-63
2022/08/28 04:04:46;;;;;;;;;;;;;;;18.59;83.50;100254.05;1771601;80;84469;-63
2022/08/28 04:07:12;;;;;;;;;;;;;;;18.58;83.50;100246.89;1773009;81;25794;-63
2022/08/28 04:09:38;;;;;;;;;;;;;;;18.58;83.46;100251.83;1771875;81;84137;-63
2022/08/28 04:12:04;;;;;;;;;;;;;;;18.57;83.46;100247.89;1772512;81;27557;-63
2022/08/28 04:14:29;;;;;;;;;;;;;;;18.56;83.41;100261.09;1772342;81;27134;-63
2022/08/28 04:16:55;;;;;;;;;;;;;;;18.56;83.46;100257.02;1771863;81;84055;-63
2022/08/28 04:19:21;;;;;;;;;;;;;;;18.58;83.48;100267.25;1770815;79;27882;-63
2022/08/28 04:21:47;;;;;;;;;;;;;;;18.61;83.41;100268.39;1760145;79;84169;-63
2022/08/28 04:24:13;;;;;;;;;;;;;;;18.62;83.82;100261.97;1751604;79;27387;-63
2022/08/28 04:26:39;;;;;;;;;;;;;;;18.56;83.71;100261.95;1764030;79;27256;-63
2022/08/28 04:29:05;;;;;;;;;;;;;;;18.56;83.95;100267.87;1758880;79;84026;-63
2022/08/28 04:31:31;;;;;;;;;;;;;;;18.52;84.14;100269.98;1763061;79;26441;-63
2022/08/28 04:33:58;;;;;;;;;;;;;;;18.49;84.08;100264.31;1754364;79;84100;-63
2022/08/28 04:36:24;;;;;;;;;;;;;;;18.52;84.04;100258.27;1753843;79;27487;-62
2022/08/28 04:38:50;;;;;;;;;;;;;;;18.52;84.22;100264.55;1755591;79;84636;-63
2022/08/28 04:41:16;;;;;;;;;;;;;;;18.49;84.22;100269.73;1751289;79;25731;-62
2022/08/28 04:43:43;;;;;;;;;;;;;;;18.47;84.17;100270.36;1767305;79;25891;-63
2022/08/28 04:46:11;;;;;;;;;;;;;;;18.45;84.45;100268.27;1756030;79;84165;-62
2022/08/28 04:48:38;;;;;;;;;;;;;;;18.46;84.47;100265.92;1757455;79;27457;-63
2022/08/28 04:51:07;;;;;;;;;;;;;;;18.49;84.39;100269.73;1752825;79;84531;-63
2022/08/28 04:53:33;;;;;;;;;;;;;;;18.53;84.29;100270.84;1747909;79;25742;-62
2022/08/28 04:56:02;;;;;;;;;;;;;;;18.55;84.21;100267.51;1764347;79;26423;-62
2022/08/28 04:58:29;;;;;;;;;;;;;;;18.55;84.12;100260.72;1759834;79;84595;-62
2022/08/28 05:00:55;;;;;;;;;;;;;;;18.53;84.01;100265.41;1763852;79;27369;-62
2022/08/28 05:03:22;;;;;;;;;;;;;;;18.49;84.22;100264.80;1759480;79;84232;-64
2022/08/28 05:05:50;;;;;;;;;;;;;;;18.46;84.31;100265.92;1760602;79;25757;-65
2022/08/28 05:08:18;;;;;;;;;;;;;;;18.48;84.53;100268.50;1760033;79;26485;-64
2022/08/28 05:10:45;;;;;;;;;;;;;;;18.43;84.63;100260.74;1763384;79;84109;-63
2022/08/28 05:13:12;;;;;;;;;;;;;;;18.47;84.71;100264.93;1761648;79;27529;-64
2022/08/28 05:15:39;;;;;;;;;;;;;;;18.49;84.62;100271.09;1752703;79;84272;-62
2022/08/28 05:18:05;;;;;;;;;;;;;;;18.49;84.78;100269.73;1748103;79;26063;-62
2022/08/28 05:20:36;;;;;;;;;;;;;;;18.48;84.68;100260.36;1745175;81;25704;-62
2022/08/28 05:23:03;;;;;;;;;;;;;;;18.49;84.96;100262.09;1752683;80;83747;-62
2022/08/28 05:25:31;;;;;;;;;;;;;;;18.54;84.83;100265.29;1752960;81;27406;-62
2022/08/28 05:27:56;;;;;;;;;;;;;;;18.59;84.95;100270.34;1744395;81;84074;-64
2022/08/28 05:30:22;;;;;;;;;;;;;;;18.67;84.84;100274.67;1746514;81;25837;-62
2022/08/28 05:32:48;;;;;;;;;;;;;;;18.72;84.71;100269.72;1742994;80;84419;-65
2022/08/28 05:35:14;;;;;;;;;;;;;;;18.75;84.66;100268.97;1752482;81;25786;-62
2022/08/28 05:37:40;;;;;;;;;;;;;;;18.75;84.58;100265.39;1755521;81;27495;-62
2022/08/28 05:40:09;;;;;;;;;;;;;;;18.76;84.79;100272.05;1743734;81;84408;-62
2022/08/28 05:42:35;;;;;;;;;;;;;;;18.86;84.68;100272.64;1741143;81;25722;-62
2022/08/28 05:45:01;;;;;;;;;;;;;;;18.85;84.53;100279.06;1745539;80;84370;-62
2022/08/28 05:47:27;;;;;;;;;;;;;;;18.77;84.72;100275.63;1757361;81;25859;-63
2022/08/28 05:49:52;;;;;;;;;;;;;;;18.77;84.87;100276.50;1740882;81;28093;-62
2022/08/28 05:52:18;;;;;;;;;;;;;;;18.69;84.81;100278.98;1749974;81;84349;-63
2022/08/28 05:54:44;;;;;;;;;;;;;;;18.71;85.02;100289.22;1750676;81;25842;-62
2022/08/28 05:57:10;;;;;;;;;;;;;;;18.73;84.97;100292.67;1749039;79;84283;-63
2022/08/28 05:59:35;;;;;;;;;;;;;;;18.78;84.94;100290.94;1753567;81;26008;-63
2022/08/28 06:02:04;;;;;;;;;;;;;;;18.85;84.85;100285.36;1762315;81;27400;-64
2022/08/28 06:04:29;;;;;;;;;;;;;;;18.93;84.96;100293.73;1767222;79;84924;-64
2022/08/28 06:06:56;;;;;;;;;;;;;;;18.98;84.85;100295.56;1747487;81;25838;-63
2022/08/28 06:09:25;;;;;;;;;;;;;;;19.04;84.75;100292.34;1763882;79;84397;-64
2022/08/28 06:11:53;;;;;;;;;;;;;;;19.10;84.60;100295.89;1753659;81;25781;-64
2022/08/28 06:14:19;;;;;;;;;;;;;;;19.17;84.72;100296.23;1757760;81;28284;-63
2022/08/28 06:16:51;;;;;;;;;;;;;;;19.24;84.58;100295.22;1745751;81;84418;-63
2022/08/28 06:19:19;;;;;;;;;;;;;;;19.32;84.50;100298.15;1763698;80;25836;-63
2022/08/28 06:21:50;;;;;;;;;;;;;;;19.36;84.43;100288.74;1754193;81;84382;-63
2022/08/28 06:24:16;;;;;;;;;;;;;;;19.47;84.33;100296.84;1747300;80;25933;-62
2022/08/28 06:26:43;;;;;;;;;;;;;;;19.55;84.28;100295.72;1748214;81;28072;-62
2022/08/28 06:29:11;;;;;;;;;;;;;;;19.64;84.13;100299.00;1753156;79;83952;-65
2022/08/28 06:31:38;;;;;;;;;;;;;;;19.69;84.03;100303.55;1754515;81;25872;-62
2022/08/28 06:34:04;;;;;;;;;;;;;;;19.76;83.90;100303.87;1744019;81;84041;-62
2022/08/28 06:36:33;;;;;;;;;;;;;;;19.80;83.73;100307.19;1751490;81;25744;-63
2022/08/28 06:39:01;;;;;;;;;;;;;;;19.81;83.63;100309.77;1748927;81;84247;-63
2022/08/28 06:41:30;;;;;;;;;;;;;;;19.83;83.69;100309.14;1743997;81;25964;-62
2022/08/28 06:43:55;;;;;;;;;;;;;;;19.83;83.62;100306.92;1743813;81;25777;-63
2022/08/28 06:46:21;;;;;;;;;;;;;;;19.86;83.57;100312.95;1755041;80;84406;-63
2022/08/28 06:48:47;;;;;;;;;;;;;;;19.90;83.47;100319.85;1703473;82;26161;-63
2022/08/28 06:51:13;;;;;;;;;;;;;;;19.92;83.41;100315.14;1730495;82;84306;-63
2022/08/28 06:53:41;;;;;;;;;;;;;;;19.98;83.53;100319.18;1726271;82;26381;-63
2022/08/28 06:56:10;;;;;;;;;;;;;;;19.92;83.30;100320.58;1719503;82;26306;-63
2022/08/28 06:58:39;;;;;;;;;;;;;;;19.91;83.40;100314.77;1719684;82;84362;-62
2022/08/28 07:01:11;;;;;;;;;;;;;;;19.98;83.39;100314.60;1726187;82;25762;-62
2022/08/28 07:03:38;;;;;;;;;;;;;;;20.02;83.32;100314.70;1760641;80;84337;-63
2022/08/28 07:06:06;;;;;;;;;;;;;;;20.02;83.11;100313.83;1752491;81;25919;-64
2022/08/28 07:08:33;;;;;;;;;;;;;;;20.03;83.18;100320.50;1751622;81;26453;-63
2022/08/28 07:11:14;;;;;;;;;;;;;;;20.05;83.22;100317.64;1741954;81;84350;-63
2022/08/28 07:13:41;;;;;;;;;;;;;;;20.06;83.04;100321.59;1745832;81;25877;-63
2022/08/28 07:16:07;;;;;;;;;;;;;;;20.03;83.09;100315.05;1755104;80;84373;-62
2022/08/28 07:18:34;;;;;;;;;;;;;;;20.10;83.08;100318.10;1761341;81;26177;-63
2022/08/28 07:20:59;;;;;;;;;;;;;;;20.16;82.99;100310.75;1717520;80;84325;-63
2022/08/28 07:23:30;;;;;;;;;;;;;;;20.28;83.04;100308.30;1756914;79;25756;-62
2022/08/28 07:25:57;;;;;;;;;;;;;;;20.40;82.83;100305.88;1751911;79;26195;-63
2022/08/28 07:28:23;;;;;;;;;;;;;;;20.54;82.83;100302.42;1757706;79;84174;-63
2022/08/28 07:31:03;;;;;;;;;;;;;;;20.63;82.58;100301.08;1757653;79;25688;-63
2022/08/28 07:33:30;;;;;;;;;;;;;;;20.72;82.45;100303.47;1758392;79;84493;-63
2022/08/28 07:35:57;;;;;;;;;;;;;;;20.71;82.11;100305.34;1748398;79;26847;-63
2022/08/28 07:38:24;;;;;;;;;;;;;;;20.80;82.06;100308.22;1757597;79;26404;-63
2022/08/28 07:40:50;;;;;;;;;;;;;;;20.83;81.87;100307.41;1762052;79;84379;-62
2022/08/28 07:46:04;;;;;;;;;;;;;;;20.97;81.75;100309.73;1741516;79;84226;-62
2022/08/28 07:48:29;;;;;;;;;;;;;;;20.97;81.31;100308.36;1743337;79;25851;-62
2022/08/28 07:50:55;;;;;;;;;;;;;;;21.00;81.36;100309.45;1755097;79;84605;-62
2022/08/28 07:53:21;;;;;;;;;;;;;;;21.04;81.19;100317.70;1754708;79;27406;-62
2022/08/28 07:55:51;;;;;;;;;;;;;;;21.04;80.86;100305.44;1763569;79;26703;-62
2022/08/28 07:58:18;;;;;;;;;;;;;;;21.05;80.79;100313.11;1763119;79;84444;-65
2022/08/28 08:00:44;;;;;;;;;;;;;;;21.11;80.71;100313.91;1750938;79;26402;-62
2022/08/28 08:03:10;;;;;;;;;;;;;;;21.08;80.34;100312.33;1759522;79;84234;-63
2022/08/28 08:05:36;;;;;;;;;;;;;;;21.06;80.37;100310.24;1764247;79;27463;-62
2022/08/28 08:08:02;;;;;;;;;;;;;;;21.07;80.13;100317.41;1756504;79;25857;-62
2022/08/28 08:10:28;;;;;;;;;;;;;;;21.07;80.10;100315.19;1754855;79;83978;-62
2022/08/28 08:12:54;;;;;;;;;;;;;;;20.99;79.82;100326.80;1747501;79;25894;-63
2022/08/28 08:15:19;;;;;;;;;;;;;;;20.96;79.82;100325.72;1751748;79;84246;-62
2022/08/28 08:17:45;;;;;;;;;;;;;;;20.97;79.85;100322.49;1749361;79;27569;-62
2022/08/28 08:20:12;;;;;;;;;;;;;;;21.00;79.79;100329.88;1768439;79;25791;-63
2022/08/28 08:22:37;;;;;;;;;;;;;;;21.05;79.70;100339.00;1758730;80;84150;-63
2022/08/28 08:25:04;;;;;;;;;;;;;;;21.07;79.75;100332.91;1758372;80;26437;-63
2022/08/28 08:27:31;;;;;;;;;;;;;;;21.13;79.64;100335.06;1756221;80;84184;-64
2022/08/28 08:29:58;;;;;;;;;;;;;;;21.13;79.54;100330.11;1762071;80;27499;-63
2022/08/28 08:32:24;;;;;;;;;;;;;;;21.17;79.53;100339.73;1751249;80;26343;-63
2022/08/28 08:34:52;;;;;;;;;;;;;;;21.23;79.56;100339.20;1766334;80;84163;-63
2022/08/28 08:37:17;;;;;;;;;;;;;;;21.34;79.54;100344.52;1767581;80;25945;-63
2022/08/28 08:39:43;;;;;;;;;;;;;;;21.43;79.38;100340.93;1760955;80;84090;-62
2022/08/28 08:42:21;;;;;;;;;;;;;;;21.47;79.10;100342.37;1753122;80;27415;-63
2022/08/28 08:44:47;;;;;;;;;;;;;;;21.52;79.03;100342.80;1767535;80;84128;-64
2022/08/28 08:47:50;;;;;;;;;;;;;;;21.55;78.98;100345.23;1769550;80;26432;-62
2022/08/28 08:50:31;;;;;;;;;;;;;;;21.65;78.95;100354.27;1753614;80;27787;-63
2022/08/28 08:53:09;;;;;;;;;;;;;;;21.73;78.65;100350.83;1757559;80;84252;-63
2022/08/28 08:55:46;;;;;;;;;;;;;;;21.75;78.46;100341.99;1764272;80;28266;-63
2022/08/28 08:58:28;;;;;;;;;;;;;;;21.78;78.40;100344.43;1761385;80;84870;-63
2022/08/28 09:01:12;;;;;;;;;;;;;;;21.84;78.30;100348.44;1744103;80;25786;-64
2022/08/28 09:03:45;;;;;;;;;;;;;;;21.94;78.28;100344.69;1767846;80;83955;-64
2022/08/28 09:06:26;;;;;;;;;;;;;;;22.05;77.98;100351.02;1758922;80;25802;-64
2022/08/28 09:08:55;;;;;;;;;;;;;;;22.08;77.76;100351.59;1765068;80;84307;-64
2022/08/28 09:11:42;;;;;;;;;;;;;;;22.15;77.60;100356.81;1760526;80;26287;-63
2022/08/28 09:14:14;;;;;;;;;;;;;;;22.23;77.48;100360.17;1771024;80;25690;-64
2022/08/28 09:16:42;;;;;;;;;;;;;;;22.23;77.14;100359.67;1758757;80;84173;-64
2022/08/28 09:19:11;;;;;;;;;;;;;;;22.28;76.96;100373.73;1758046;80;25263;-63
2022/08/28 09:21:42;;;;;;;;;;;;;;;22.28;76.80;100366.91;1748326;80;84139;-64
2022/08/28 09:24:21;;;;;;;;;;;;;;;22.37;76.71;100356.11;1756824;81;26404;-64
2022/08/28 09:27:02;;;;;;;;;;;;;;;22.39;76.42;100373.20;1746012;81;84267;-65
2022/08/28 09:29:34;;;;;;;;;;;;;;;22.38;76.27;100364.66;1750598;81;26432;-64
2022/08/28 09:32:15;;;;;;;;;;;;;;;22.42;76.04;100368.81;1753091;81;25823;-64
2022/08/28 09:34:44;;;;;;;;;;;;;;;22.43;75.90;100367.30;1750617;80;83941;-64
2022/08/28 09:37:13;;;;;;;;;;;;;;;22.48;75.79;100368.21;1741692;81;26346;-64
2022/08/28 09:39:39;;;;;;;;;;;;;;;22.47;75.59;100365.98;1732525;81;84315;-62
2022/08/28 09:45:20;;;;;;;;;;;;;;;22.46;75.09;100371.59;1753542;81;84598;-63
2022/08/28 09:47:54;;;;;;;;;;;;;;;22.44;75.16;100367.65;1746686;80;27404;-63
2022/08/28 09:50:38;;;;;;;;;;;;;;;22.57;75.37;100368.67;1748772;81;25805;-63
2022/08/28 09:53:13;;;;;;;;;;;;;;;22.68;75.19;100375.31;1756590;80;84168;-63
2022/08/28 09:55:51;;;;;;;;;;;;;;;22.70;75.00;100374.66;1743950;81;26825;-63
2022/08/28 09:58:17;;;;;;;;;;;;;;;22.74;74.93;100381.55;1753593;80;84049;-62
2022/08/28 10:00:55;;;;;;;;;;;;;;;22.77;74.83;100364.84;1756746;79;27382;-63
2022/08/28 10:03:27;;;;;;;;;;;;;;;22.85;74.83;100367.72;1739858;81;84140;-63
2022/08/28 10:06:10;;;;;;;;;;;;;;;22.91;74.64;100372.57;1752893;81;26222;-62
2022/08/28 10:08:45;;;;;;;;;;;;;;;22.93;74.50;100370.55;1751874;81;26443;-62
2022/08/28 10:11:21;;;;;;;;;;;;;;;22.96;73.79;100372.97;1724479;80;84275;-63
2022/08/28 10:14:10;;;;;;;;;;;;;;;22.87;73.79;100373.89;1757493;80;27418;-63
2022/08/28 10:16:40;;;;;;;;;;;;;;;22.83;73.45;100369.73;1746886;81;84119;-63
2022/08/28 10:19:26;;;;;;;;;;;;;;;22.81;73.53;100365.44;1711369;82;25797;-63
2022/08/28 10:22:05;;;;;;;;;;;;;;;22.89;73.55;100365.53;1710793;82;84322;-63
2022/08/28 10:24:53;;;;;;;;;;;;;;;22.93;73.50;100369.18;1721983;81;26203;-64
2022/08/28 10:27:46;;;;;;;;;;;;;;;22.97;73.59;100372.47;1733866;81;84441;-63
2022/08/28 10:30:14;;;;;;;;;;;;;;;23.04;73.43;100376.82;1751872;79;26345;-63
2022/08/28 10:33:14;;;;;;;;;;;;;;;23.07;73.42;100379.25;1764951;79;25742;-64
2022/08/28 10:35:49;;;;;;;;;;;;;;;23.10;73.33;100378.94;1636821;86;26222;-64
2022/08/28 10:38:27;;;;;;;;;;;;;;;23.11;73.28;100377.92;1654187;85;25891;-64
2022/08/28 10:41:02;;;;;;;;;;;;;;;23.11;73.16;100383.39;1699477;82;84022;-64
2022/08/28 10:43:34;;;;;;;;;;;;;;;23.13;73.14;100381.37;1701681;82;25931;-63
2022/08/28 10:46:05;;;;;;;;;;;;;;;23.18;73.07;100384.50;1699656;82;84266;-63
2022/08/28 10:48:59;;;;;;;;;;;;;;;23.22;72.96;100380.45;1701515;82;26628;-63
2022/08/28 10:51:46;;;;;;;;;;;;;;;23.24;72.87;100379.28;1700466;82;84376;-63
2022/08/28 10:54:27;;;;;;;;;;;;;;;23.26;72.74;100384.09;1702116;82;28975;-63
2022/08/28 10:57:03;;;;;;;;;;;;;;;23.25;72.62;100387.83;1666646;82;26075;-63
2022/08/28 10:59:31;;;;;;;;;;;;;;;23.24;72.59;100383.37;1715639;81;84051;-63
2022/08/28 11:01:58;;;;;;;;;;;;;;;23.23;72.52;100385.77;1723736;81;26161;-62
2022/08/28 11:04:24;;;;;;;;;;;;;;;23.27;72.43;100387.68;1718122;81;84158;-62
2022/08/28 11:06:53;;;;;;;;;;;;;;;23.28;72.36;100390.27;1685297;83;29016;-63
2022/08/28 11:09:37;;;;;;;;;;;;;;;23.28;72.18;100393.50;1657499;85;84220;-63
2022/08/28 11:12:19;;;;;;;;;;;;;;;23.26;72.13;100396.39;1655696;85;25857;-62
2022/08/28 11:14:48;;;;;;;;;;;;;;;23.27;71.98;100395.89;1644170;85;26487;-62
2022/08/28 11:17:27;;;;;;;;;;;;;;;23.25;71.84;100392.44;1683550;83;84457;-62
2022/08/28 11:20:08;;;;;;;;;;;;;;;23.30;71.98;100397.80;1671181;83;28252;-62
2022/08/28 11:22:51;;;;;;;;;;;;;;;23.40;71.89;100401.84;1653553;85;84098;-62
2022/08/28 11:25:28;;;;;;;;;;;;;;;23.48;71.87;100410.10;1655931;85;25761;-62
2022/08/28 11:28:21;;;;;;;;;;;;;;;23.50;71.56;100407.21;1657229;85;85076;-62
2022/08/28 11:30:59;;;;;;;;;;;;;;;23.58;71.62;100411.43;1651008;85;25765;-62
2022/08/28 11:33:34;;;;;;;;;;;;;;;23.61;71.56;100415.22;1655324;84;84321;-64
2022/08/28 11:36:02;;;;;;;;;;;;;;;23.60;71.36;100419.83;1650403;85;25813;-62
2022/08/28 11:38:43;;;;;;;;;;;;;;;23.50;71.13;100412.68;1659386;84;25788;-63
2022/08/28 11:41:19;;;;;;;;;;;;;;;23.52;71.21;100418.86;1656358;85;84896;-62
2022/08/28 11:43:45;;;;;;;;;;;;;;;23.55;71.11;100419.95;1652738;85;25765;-62
2022/08/28 11:46:26;;;;;;;;;;;;;;;23.48;70.46;100421.55;1683431;83;84154;-62
2022/08/28 11:48:55;;;;;;;;;;;;;;;23.39;70.71;100417.90;1681675;83;25799;-63
2022/08/28 11:51:35;;;;;;;;;;;;;;;23.41;70.61;100419.94;1681172;83;84549;-64
2022/08/28 11:54:27;;;;;;;;;;;;;;;23.39;70.72;100426.11;1681960;83;25827;-64
2022/08/28 11:57:02;;;;;;;;;;;;;;;23.36;70.73;100420.08;1684303;83;25764;-63
2022/08/28 11:59:40;;;;;;;;;;;;;;;23.27;70.94;100424.59;1683075;83;83896;-64
2022/08/28 12:02:39;;;;;;;;;;;;;;;23.23;70.90;100420.45;1675908;83;26074;-64
2022/08/28 12:05:18;;;;;;;;;;;;;;;23.16;70.92;100420.70;1679761;83;85775;-65
2022/08/28 12:07:49;;;;;;;;;;;;;;;23.10;71.03;100423.55;1677275;83;26514;-65
2022/08/28 12:10:29;;;;;;;;;;;;;;;23.10;71.22;100421.31;1675472;83;84995;-65
2022/08/28 12:13:00;;;;;;;;;;;;;;;23.11;71.31;100426.63;1684527;83;29108;-64
2022/08/28 12:15:30;;;;;;;;;;;;;;;23.09;71.22;100415.50;1630443;85;84307;-64
2022/08/28 12:18:00;;;;;;;;;;;;;;;23.02;71.30;100426.69;1651678;85;25796;-64
2022/08/28 12:20:48;;;;;;;;;;;;;;;22.94;71.60;100422.84;1653285;85;26117;-62
2022/08/28 12:23:33;;;;;;;;;;;;;;;22.91;71.81;100427.23;1649666;85;84147;-64
2022/08/28 12:26:07;;;;;;;;;;;;;;;22.85;71.96;100430.58;1655650;85;26971;-63
2022/08/28 12:29:04;;;;;;;;;;;;;;;22.83;72.38;100438.06;1650450;85;84205;-65
2022/08/28 12:32:11;;;;;;;;;;;;;;;22.80;72.62;100424.70;1652015;84;25773;-63
2022/08/28 12:34:41;;;;;;;;;;;;;;;22.79;72.87;100424.34;1645003;85;84362;-62
2022/08/28 12:37:23;;;;;;;;;;;;;;;22.78;73.22;100430.78;1656608;85;26422;-63
2022/08/28 12:39:49;;;;;;;;;;;;;;;22.79;73.48;100428.44;1647613;85;84297;-62
2022/08/28 12:42:17;;;;;;;;;;;;;;;22.84;73.49;100426.63;1653258;85;25908;-63
2022/08/28 12:44:43;;;;;;;;;;;;;;;22.88;73.62;100419.84;1690674;83;26088;-64
2022/08/28 12:47:12;;;;;;;;;;;;;;;22.90;73.73;100420.05;1692985;83;84992;-65
2022/08/28 12:49:38;;;;;;;;;;;;;;;22.89;73.79;100427.89;1692901;83;25974;-63
2022/08/28 12:52:16;;;;;;;;;;;;;;;22.89;73.96;100422.42;1694565;83;84093;-63
2022/08/28 12:54:44;;;;;;;;;;;;;;;22.90;74.04;100422.78;1692566;83;25770;-62
2022/08/28 12:57:13;;;;;;;;;;;;;;;22.93;74.06;100421.11;1691551;83;26572;-63
2022/08/28 12:59:42;;;;;;;;;;;;;;;22.97;74.08;100423.90;1684238;83;84766;-63